Time;durP1;ratioP1;P1;durP2;ratioP2;P2;SDS_P1;SDS_P2;PMS_P1;PMS_P2;Temp;Humidity;BMP_temperature;BMP_pressure;BME280_temperature;BME280_humidity;BME280_pressure;Samples;Min_cycle;Max_cycle;Signal;HPM_P1;HPM_P2
2022/07/09 00:00:48;;;;;;;5.42;2.83;;;;;;;20.23;59.31;100438.08;1726533;81;21609;-58
2022/07/09 00:03:14;;;;;;;6.45;2.70;;;;;;;20.25;59.25;100439.23;1727715;81;22478;-58
2022/07/09 00:05:41;;;;;;;9.15;2.65;;;;;;;20.25;59.48;100431.73;1723532;81;21640;-59
2022/07/09 00:08:08;;;;;;;5.35;2.60;;;;;;;20.24;59.42;100433.58;1733486;80;21581;-58
2022/07/09 00:10:34;;;;;;;7.12;2.80;;;;;;;20.22;59.79;100433.77;1735393;81;21144;-58
2022/07/09 00:13:01;;;;;;;5.12;3.02;;;;;;;20.25;59.68;100431.73;1726088;81;21032;-59
2022/07/09 00:15:27;;;;;;;4.37;2.70;;;;;;;20.30;59.70;100430.15;1668778;85;21062;-58
2022/07/09 00:17:54;;;;;;;4.97;2.77;;;;;;;20.32;59.67;100428.11;1732734;81;21461;-58
2022/07/09 00:20:21;;;;;;;4.90;2.87;;;;;;;20.34;59.64;100430.60;1667671;85;21145;-59
2022/07/09 00:22:48;;;;;;;5.35;2.77;;;;;;;20.34;59.62;100422.59;1724817;81;21529;-58
2022/07/09 00:25:14;;;;;;;8.13;3.08;;;;;;;20.32;59.55;100425.44;1726479;81;21118;-58
2022/07/09 00:27:41;;;;;;;5.75;3.00;;;;;;;20.31;59.39;100422.47;1727999;81;21601;-58
2022/07/09 00:30:09;;;;;;;5.67;3.42;;;;;;;20.28;59.11;100424.17;1732016;81;21039;-58
2022/07/09 00:32:36;;;;;;;4.33;2.55;;;;;;;20.23;59.33;100420.70;1726526;81;21095;-58
2022/07/09 00:35:04;;;;;;;6.70;3.05;;;;;;;20.23;59.13;100410.02;1728344;81;21435;-59
2022/07/09 00:37:30;;;;;;;4.65;2.77;;;;;;;20.24;58.58;100413.55;1728814;81;21074;-58
2022/07/09 00:39:57;;;;;;;5.10;2.60;;;;;;;20.23;58.71;100410.02;1668382;84;21661;-59
2022/07/09 00:42:24;;;;;;;5.03;2.55;;;;;;;20.21;58.93;100409.38;1731791;81;21044;-58
2022/07/09 00:44:52;;;;;;;8.18;2.95;;;;;;;20.19;59.19;100411.42;1739842;81;21086;-59
2022/07/09 00:47:18;;;;;;;4.42;2.37;;;;;;;20.18;59.53;100416.95;1740360;80;21187;-59
2022/07/09 00:49:44;;;;;;;4.95;2.70;;;;;;;20.16;59.51;100420.31;1737086;80;21066;-58
2022/07/09 00:52:14;;;;;;;4.92;2.55;;;;;;;20.17;59.55;100417.46;1737474;80;21068;-58
2022/07/09 00:54:41;;;;;;;3.77;2.00;;;;;;;20.23;59.47;100416.70;1649305;84;21133;-59
2022/07/09 00:57:09;;;;;;;5.83;2.47;;;;;;;20.23;59.14;100415.88;1689164;84;21066;-58
2022/07/09 00:59:36;;;;;;;4.22;2.40;;;;;;;20.23;59.43;100412.69;1695034;84;21142;-59
2022/07/09 01:02:04;;;;;;;4.85;2.90;;;;;;;20.22;59.45;100400.37;1684624;84;21051;-59
2022/07/09 01:04:31;;;;;;;6.08;2.40;;;;;;;20.22;59.57;100408.87;1687972;83;21066;-58
2022/07/09 01:07:01;;;;;;;5.12;2.62;;;;;;;20.19;59.73;100415.42;1686550;83;21051;-58
2022/07/09 01:09:28;;;;;;;4.10;2.12;;;;;;;20.22;59.87;100411.05;1695450;83;21094;-58
2022/07/09 01:11:55;;;;;;;4.90;2.60;;;;;;;20.30;59.68;100403.95;1709430;83;21123;-59
2022/07/09 01:14:22;;;;;;;6.45;2.80;;;;;;;20.33;59.58;100396.90;1702880;83;21126;-58
2022/07/09 01:16:59;;;;;;;4.90;2.47;;;;;;;20.34;59.73;100395.86;1701572;82;21106;-58
2022/07/09 01:19:27;;;;;;;4.37;2.30;;;;;;;20.35;59.35;100393.01;1694117;83;21525;-58
2022/07/09 01:21:54;;;;;;;4.60;2.35;;;;;;;20.33;59.33;100393.70;1694760;83;21109;-58
2022/07/09 01:24:21;;;;;;;4.70;2.20;;;;;;;20.31;59.45;100393.56;1689597;83;22084;-59
2022/07/09 01:26:48;;;;;;;6.00;2.55;;;;;;;20.29;59.81;100390.25;1689794;84;21082;-58
2022/07/09 01:29:15;;;;;;;4.92;2.50;;;;;;;20.33;60.19;100392.89;1686756;83;21059;-58
2022/07/09 01:31:41;;;;;;;5.53;2.80;;;;;;;20.37;59.76;100395.49;1685645;84;21300;-59
2022/07/09 01:34:09;;;;;;;6.12;2.65;;;;;;;20.38;59.40;100398.50;1685865;84;21036;-58
2022/07/09 01:36:36;;;;;;;7.42;2.80;;;;;;;20.37;59.44;100407.52;1685040;83;21230;-58
2022/07/09 01:39:03;;;;;;;5.55;2.70;;;;;;;20.36;59.44;100404.55;1683342;83;21134;-58
2022/07/09 01:41:32;;;;;;;4.35;2.72;;;;;;;20.35;59.59;100408.22;1681975;84;21087;-58
2022/07/09 01:43:58;;;;;;;5.12;2.60;;;;;;;20.36;59.56;100407.22;1691322;83;21375;-59
2022/07/09 01:46:26;;;;;;;4.90;2.50;;;;;;;20.35;59.67;100414.91;1694550;82;21090;-58
2022/07/09 01:48:52;;;;;;;5.65;2.45;;;;;;;20.37;59.33;100422.22;1695820;82;21142;-59
2022/07/09 01:51:21;;;;;;;4.97;2.83;;;;;;;20.41;59.15;100423.00;1689294;82;21023;-59
2022/07/09 01:53:49;;;;;;;7.53;2.58;;;;;;;20.45;59.25;100434.14;1689030;83;21555;-59
2022/07/09 01:56:16;;;;;;;5.87;3.00;;;;;;;20.48;59.42;100440.98;1699443;82;21087;-59
2022/07/09 01:58:44;;;;;;;4.65;2.40;;;;;;;20.49;59.71;100466.16;1696210;82;21071;-59
2022/07/09 02:01:12;;;;;;;4.90;2.40;;;;;;;20.49;59.44;100483.53;1696790;82;21984;-59
2022/07/09 02:03:38;;;;;;;7.12;2.75;;;;;;;20.52;59.31;100510.41;1691878;83;22265;-59
2022/07/09 02:06:05;;;;;;;6.25;2.92;;;;;;;20.54;59.89;100522.59;1693153;82;22390;-59
2022/07/09 02:08:33;;;;;;;5.78;3.00;;;;;;;20.51;59.99;100528.30;1695073;82;21035;-60
2022/07/09 02:10:59;;;;;;;9.00;3.17;;;;;;;20.50;60.55;100539.99;1697269;82;21058;-59
2022/07/09 02:13:26;;;;;;;5.12;3.02;;;;;;;20.52;60.56;100537.95;1699248;83;21214;-60
2022/07/09 02:15:54;;;;;;;6.40;2.42;;;;;;;20.53;60.12;100549.50;1697335;82;21086;-60
2022/07/09 02:18:21;;;;;;;6.50;2.80;;;;;;;20.49;60.17;100559.70;1696748;83;21067;-59
2022/07/09 02:20:50;;;;;;;5.45;3.02;;;;;;;20.45;60.08;100553.08;1693992;82;21051;-59
2022/07/09 02:23:17;;;;;;;10.43;3.42;;;;;;;20.45;60.15;100554.41;1694193;82;21020;-59
2022/07/09 02:25:43;;;;;;;6.45;2.90;;;;;;;20.47;60.53;100535.01;1690669;83;21098;-59
2022/07/09 02:28:10;;;;;;;6.62;3.00;;;;;;;20.45;59.94;100537.05;1694680;82;21083;-58
2022/07/09 02:30:37;;;;;;;5.83;2.67;;;;;;;20.41;59.92;100531.23;1699888;82;21095;-60
2022/07/09 02:33:04;;;;;;;5.00;2.65;;;;;;;20.38;59.72;100536.13;1696524;83;21653;-58
2022/07/09 02:35:31;;;;;;;5.60;2.92;;;;;;;20.31;59.59;100537.36;1692435;83;21066;-58
2022/07/09 02:37:58;;;;;;;4.70;3.00;;;;;;;20.25;59.44;100531.92;1694437;82;21975;-58
2022/07/09 02:40:26;;;;;;;6.45;2.58;;;;;;;20.18;59.54;100531.82;1694988;83;21086;-59
2022/07/09 02:42:52;;;;;;;4.78;2.83;;;;;;;20.18;59.45;100533.97;1701093;82;21079;-59
2022/07/09 02:45:19;;;;;;;4.40;2.47;;;;;;;20.23;59.34;100524.08;1696187;83;21079;-59
2022/07/09 02:47:45;;;;;;;5.40;2.20;;;;;;;20.27;59.41;100530.70;1692099;83;21075;-59
2022/07/09 02:50:12;;;;;;;5.35;2.55;;;;;;;20.31;59.50;100529.83;1696233;83;21147;-59
2022/07/09 02:52:38;;;;;;;4.72;2.50;;;;;;;20.34;59.89;100541.50;1681295;85;21076;-58
2022/07/09 02:55:06;;;;;;;6.50;2.55;;;;;;;20.36;60.42;100548.84;1735714;81;21044;-59
2022/07/09 02:59:56;;;;;;;4.92;2.60;;;;;;;20.45;60.32;100554.93;1796526;78;22624;-60
2022/07/09 03:02:23;;;;;;;5.42;2.50;;;;;;;20.48;60.02;100564.74;1767785;80;21147;-60
2022/07/09 03:04:49;;;;;;;4.72;2.67;;;;;;;20.47;59.94;100564.92;1769179;80;21072;-60
2022/07/09 03:07:16;;;;;;;4.92;2.52;;;;;;;20.46;60.19;100571.27;1774750;79;21054;-60
2022/07/09 03:09:43;;;;;;;6.72;2.70;;;;;;;20.45;60.17;100570.97;1771669;80;21118;-60
2022/07/09 03:12:09;;;;;;;4.47;2.37;;;;;;;20.46;59.96;100573.45;1762496;80;21019;-60
2022/07/09 03:14:37;;;;;;;5.78;2.40;;;;;;;20.55;60.00;100572.34;1767046;80;21059;-60
2022/07/09 03:17:04;;;;;;;5.97;2.90;;;;;;;20.59;59.56;100562.96;1769031;80;21132;-58
2022/07/09 03:19:31;;;;;;;4.45;2.55;;;;;;;20.61;59.40;100570.80;1765071;79;21109;-58
2022/07/09 03:21:59;;;;;;;7.85;3.08;;;;;;;20.62;59.25;100566.27;1764334;80;21478;-60
2022/07/09 03:24:26;;;;;;;5.65;2.60;;;;;;;20.59;59.04;100568.79;1776097;80;21105;-59
2022/07/09 03:26:52;;;;;;;5.92;2.98;;;;;;;20.59;59.18;100575.47;1768644;80;21065;-60
2022/07/09 03:29:19;;;;;;;6.20;3.05;;;;;;;20.58;59.92;100586.69;1771055;80;21089;-60
2022/07/09 03:31:45;;;;;;;6.50;2.60;;;;;;;20.54;60.24;100587.23;1768900;80;21070;-60
2022/07/09 03:34:12;;;;;;;5.05;2.58;;;;;;;20.50;60.49;100586.77;1763232;80;21038;-60
2022/07/09 03:36:38;;;;;;;4.15;1.80;;;;;;;20.50;60.63;100589.44;1766244;80;21129;-59
2022/07/09 03:39:05;;;;;;;4.97;2.70;;;;;;;20.53;60.53;100583.73;1770250;80;21097;-60
2022/07/09 03:41:31;;;;;;;6.53;2.77;;;;;;;20.56;60.49;100582.52;1763906;80;22842;-60
2022/07/09 03:43:58;;;;;;;6.92;2.60;;;;;;;20.56;60.78;100581.19;1767300;80;21109;-60
2022/07/09 03:46:24;;;;;;;6.58;2.75;;;;;;;20.56;61.11;100582.03;1766333;80;21075;-60
2022/07/09 03:48:51;;;;;;;6.42;2.77;;;;;;;20.56;61.15;100572.68;1767283;79;21059;-60
2022/07/09 03:51:18;;;;;;;4.90;2.77;;;;;;;20.55;61.57;100575.53;1767145;80;21109;-60
2022/07/09 03:53:44;;;;;;;5.12;2.90;;;;;;;20.52;61.89;100575.89;1763007;80;21682;-60
2022/07/09 03:56:12;;;;;;;5.12;2.80;;;;;;;20.51;62.11;100567.54;1767266;80;21710;-60
2022/07/09 03:58:38;;;;;;;4.83;2.45;;;;;;;20.56;62.42;100566.00;1766739;80;21450;-60
2022/07/09 04:01:05;;;;;;;5.85;2.90;;;;;;;20.59;62.40;100563.45;1753140;80;22142;-59
2022/07/09 04:03:32;;;;;;;5.20;2.87;;;;;;;20.60;62.50;100560.59;1752813;80;21106;-59
2022/07/09 04:05:59;;;;;;;5.95;2.80;;;;;;;20.60;62.77;100556.58;1751444;80;21169;-60
2022/07/09 04:08:27;;;;;;;4.72;3.00;;;;;;;20.60;63.08;100555.76;1764603;80;21058;-59
2022/07/09 04:10:55;;;;;;;5.08;2.65;;;;;;;20.60;63.20;100546.41;1754837;80;21589;-59
2022/07/09 04:13:21;;;;;;;5.42;2.72;;;;;;;20.57;63.34;100538.75;1752301;80;21671;-59
2022/07/09 04:15:48;;;;;;;6.80;3.40;;;;;;;20.54;63.34;100531.94;1761581;80;21122;-58
2022/07/09 04:18:17;;;;;;;8.15;3.25;;;;;;;20.53;63.66;100523.59;1754683;80;21132;-59
2022/07/09 04:20:44;;;;;;;5.47;3.42;;;;;;;20.54;64.33;100523.92;1752665;80;21058;-59
2022/07/09 04:23:10;;;;;;;7.92;3.45;;;;;;;20.52;64.66;100512.56;1752906;80;21091;-59
2022/07/09 04:25:36;;;;;;;7.75;3.40;;;;;;;20.45;64.92;100508.16;1750837;80;21056;-59
2022/07/09 04:28:05;;;;;;;4.80;2.95;;;;;;;20.35;65.36;100509.25;1760699;80;21189;-58
2022/07/09 04:30:33;;;;;;;7.15;3.00;;;;;;;20.25;65.76;100499.34;1750423;80;21491;-59
2022/07/09 04:33:00;;;;;;;6.47;2.70;;;;;;;20.18;66.84;100492.56;1758247;80;21113;-58
2022/07/09 04:35:27;;;;;;;5.33;2.60;;;;;;;20.13;66.41;100502.16;1757393;80;21105;-58
2022/07/09 04:37:55;;;;;;;6.03;2.62;;;;;;;19.99;66.86;100495.27;1764728;80;22957;-61
2022/07/09 04:40:22;;;;;;;5.95;2.80;;;;;;;19.85;66.63;100490.23;1754846;80;21085;-60
2022/07/09 04:42:50;;;;;;;5.55;2.67;;;;;;;19.72;66.90;100484.65;1761082;80;21043;-60
2022/07/09 04:45:17;;;;;;;4.62;2.27;;;;;;;19.61;67.08;100469.05;1758361;80;21664;-63
2022/07/09 04:47:44;;;;;;;6.55;2.55;;;;;;;19.56;67.35;100460.76;1752743;80;21051;-62
2022/07/09 04:50:13;;;;;;;5.80;2.50;;;;;;;19.48;67.70;100446.48;1749944;80;21047;-64
2022/07/09 04:52:39;;;;;;;4.75;2.50;;;;;;;19.39;67.93;100440.87;1751342;80;21525;-62
2022/07/09 04:55:07;;;;;;;4.92;2.90;;;;;;;19.29;68.37;100435.77;1757520;80;22454;-64
2022/07/09 04:57:34;;;;;;;4.95;2.25;;;;;;;19.24;68.85;100430.66;1750296;80;21074;-64
2022/07/09 05:00:02;;;;;;;4.60;2.40;;;;;;;19.20;69.06;100430.67;1748297;80;21062;-64
2022/07/09 05:02:29;;;;;;;6.47;3.02;;;;;;;19.16;69.50;100425.38;1759628;80;21003;-63
2022/07/09 05:04:56;;;;;;;7.87;3.22;;;;;;;19.07;69.77;100412.10;1754518;80;21086;-64
2022/07/09 05:07:23;;;;;;;6.62;3.37;;;;;;;19.04;70.31;100400.97;1748081;80;21218;-64
2022/07/09 05:09:49;;;;;;;6.87;3.40;;;;;;;19.00;70.26;100394.34;1747253;80;21122;-63
2022/07/09 05:12:16;;;;;;;6.60;3.45;;;;;;;18.96;70.82;100396.50;1748307;80;21011;-63
2022/07/09 05:14:43;;;;;;;7.08;3.33;;;;;;;18.89;71.12;100396.90;1752753;80;21020;-63
2022/07/09 05:17:10;;;;;;;6.20;3.35;;;;;;;18.88;71.44;100412.08;1762471;80;21050;-63
2022/07/09 05:19:38;;;;;;;5.65;3.37;;;;;;;18.93;71.70;100421.70;1759070;80;22627;-64
2022/07/09 05:22:04;;;;;;;4.75;2.90;;;;;;;18.99;71.45;100418.82;1752199;80;21503;-63
2022/07/09 05:24:31;;;;;;;5.22;3.33;;;;;;;19.00;71.48;100415.16;1749510;80;21026;-65
2022/07/09 05:26:57;;;;;;;7.25;3.40;;;;;;;18.99;71.23;100406.00;1750641;80;21012;-66
2022/07/09 05:29:26;;;;;;;6.58;2.77;;;;;;;19.01;70.65;100402.13;1756081;80;21011;-64
2022/07/09 05:31:52;;;;;;;6.97;3.35;;;;;;;19.04;70.86;100396.45;1752198;80;21782;-63
2022/07/09 05:34:19;;;;;;;8.58;4.17;;;;;;;19.02;70.93;100374.98;1760549;80;21521;-67
2022/07/09 05:36:45;;;;;;;6.55;3.98;;;;;;;18.96;71.41;100360.52;1762480;80;21743;-65
2022/07/09 05:39:12;;;;;;;7.40;3.87;;;;;;;18.93;71.92;100348.38;1754961;80;21095;-69
2022/07/09 05:41:38;;;;;;;7.47;4.37;;;;;;;18.93;72.11;100347.05;1763779;80;21098;-68
2022/07/09 05:44:04;;;;;;;7.10;4.22;;;;;;;18.93;72.31;100348.90;1768630;80;21220;-67
2022/07/09 05:46:32;;;;;;;7.95;4.97;;;;;;;18.96;72.13;100343.18;1750045;80;21068;-70
2022/07/09 05:48:58;;;;;;;8.93;5.05;;;;;;;18.95;71.74;100345.54;1755183;80;21020;-69
2022/07/09 05:51:25;;;;;;;5.95;4.15;;;;;;;18.99;71.52;100334.83;1757768;80;21135;-68
2022/07/09 05:53:51;;;;;;;8.05;4.83;;;;;;;19.08;71.90;100320.92;1758119;80;21075;-65
2022/07/09 05:56:18;;;;;;;9.23;4.47;;;;;;;19.11;71.34;100328.08;1769361;80;21065;-65
2022/07/09 05:58:45;;;;;;;6.58;4.35;;;;;;;19.15;71.37;100333.03;1753162;80;21008;-65
2022/07/09 06:01:13;;;;;;;11.35;4.42;;;;;;;19.15;71.49;100331.21;1758338;80;21019;-66
2022/07/09 06:03:40;;;;;;;6.95;4.40;;;;;;;19.23;71.20;100333.81;1758660;80;21058;-64
2022/07/09 06:06:07;;;;;;;7.28;4.55;;;;;;;19.30;71.06;100325.40;1757540;80;21055;-66
2022/07/09 06:08:33;;;;;;;6.55;4.40;;;;;;;19.34;70.37;100328.53;1750582;80;21129;-68
2022/07/09 06:11:02;;;;;;;8.58;4.50;;;;;;;19.34;69.99;100332.53;1759164;80;20976;-69
2022/07/09 06:13:29;;;;;;;6.33;3.87;;;;;;;19.39;69.58;100331.48;1749977;80;20996;-67
2022/07/09 06:15:56;;;;;;;6.15;3.70;;;;;;;19.46;69.63;100343.07;1756832;80;21051;-65
2022/07/09 06:18:22;;;;;;;6.87;3.42;;;;;;;19.55;69.73;100355.00;1754549;80;21120;-68
2022/07/09 06:20:49;;;;;;;5.25;3.45;;;;;;;19.61;69.35;100357.77;1762316;80;21332;-66
2022/07/09 06:23:16;;;;;;;5.85;3.25;;;;;;;19.60;68.80;100373.97;1700372;82;21095;-64
2022/07/09 06:25:42;;;;;;;4.95;3.27;;;;;;;19.61;68.59;100374.30;1757406;80;21443;-66
2022/07/09 06:28:11;;;;;;;9.98;3.60;;;;;;;19.64;67.82;100384.11;1758689;80;21039;-64
2022/07/09 06:30:38;;;;;;;8.80;3.77;;;;;;;19.66;67.95;100391.93;1758659;79;21258;-66
2022/07/09 06:33:05;;;;;;;4.97;2.85;;;;;;;19.66;67.83;100395.94;1756988;80;21946;-66
2022/07/09 06:35:32;;;;;;;5.80;3.60;;;;;;;19.69;68.03;100407.59;1753741;80;21106;-66
2022/07/09 06:38:00;;;;;;;6.20;3.98;;;;;;;19.75;67.33;100422.07;1750276;80;21545;-66
2022/07/09 06:40:27;;;;;;;6.35;3.90;;;;;;;19.79;67.13;100415.38;1758294;80;21102;-65
2022/07/09 06:42:53;;;;;;;6.55;4.28;;;;;;;19.83;67.37;100398.78;1752957;80;21405;-64
2022/07/09 06:45:22;;;;;;;8.83;4.72;;;;;;;19.81;67.50;100380.78;1756256;80;21137;-63
2022/07/09 06:47:50;;;;;;;9.45;4.55;;;;;;;19.75;67.50;100376.69;1749240;80;21000;-63
2022/07/09 06:50:16;;;;;;;5.87;4.05;;;;;;;19.68;67.77;100381.89;1705556;82;21075;-65
2022/07/09 06:52:43;;;;;;;7.35;4.37;;;;;;;19.72;67.90;100381.88;1755832;80;21011;-63
2022/07/09 06:55:10;;;;;;;7.08;3.85;;;;;;;19.76;67.80;100385.03;1753722;80;21003;-63
2022/07/09 06:57:37;;;;;;;5.90;3.98;;;;;;;19.77;67.12;100383.52;1712857;82;21109;-62
2022/07/09 07:00:08;;;;;;;8.63;4.65;;;;;;;19.73;66.84;100382.17;1760704;80;21072;-62
2022/07/09 07:02:35;;;;;;;5.97;3.65;;;;;;;19.70;67.56;100383.87;1757577;80;21073;-62
2022/07/09 07:05:04;;;;;;;5.37;3.58;;;;;;;19.67;67.66;100396.27;1767193;80;20997;-62
2022/07/09 07:07:31;;;;;;;7.28;3.65;;;;;;;19.69;67.68;100396.91;1746194;80;21066;-63
2022/07/09 07:09:58;;;;;;;7.00;3.92;;;;;;;19.72;67.58;100378.34;1758577;80;21133;-62
2022/07/09 07:12:25;;;;;;;6.90;4.10;;;;;;;19.71;68.35;100368.70;1744820;80;21098;-62
2022/07/09 07:14:52;;;;;;;6.55;3.33;;;;;;;19.65;68.63;100376.44;1751049;80;21034;-62
2022/07/09 07:17:20;;;;;;;5.55;3.10;;;;;;;19.64;69.21;100381.95;1743973;80;21413;-62
2022/07/09 07:19:47;;;;;;;5.92;3.50;;;;;;;19.67;69.14;100373.58;1768865;80;21109;-63
2022/07/09 07:22:13;;;;;;;5.67;3.77;;;;;;;19.73;68.17;100359.48;1754099;80;21195;-64
2022/07/09 07:24:40;;;;;;;5.40;3.22;;;;;;;19.69;67.97;100355.54;1759894;80;21356;-63
2022/07/09 07:27:08;;;;;;;5.85;3.87;;;;;;;19.60;68.25;100352.61;1759152;80;21157;-63
2022/07/09 07:29:35;;;;;;;8.33;3.37;;;;;;;19.51;68.83;100346.53;1750962;80;21107;-64
2022/07/09 07:32:02;;;;;;;5.62;3.08;;;;;;;19.43;68.19;100343.95;1752918;80;21528;-68
2022/07/09 07:34:30;;;;;;;7.90;3.77;;;;;;;19.37;68.79;100349.52;1751343;80;22060;-64
2022/07/09 07:36:56;;;;;;;7.28;3.50;;;;;;;19.29;69.11;100340.25;1760704;80;21627;-65
2022/07/09 07:39:24;;;;;;;5.65;3.37;;;;;;;19.19;69.29;100341.02;1747310;80;21066;-67
2022/07/09 07:41:51;;;;;;;6.97;3.20;;;;;;;19.18;69.16;100337.52;1758405;79;21038;-64
2022/07/09 07:44:18;;;;;;;5.55;3.67;;;;;;;19.16;69.66;100345.37;1753112;80;21023;-66
2022/07/09 07:46:44;;;;;;;9.63;3.50;;;;;;;19.11;69.68;100336.56;1754958;80;21082;-66
2022/07/09 07:49:11;;;;;;;5.22;3.52;;;;;;;19.06;70.01;100325.13;1753073;80;21129;-64
2022/07/09 07:51:38;;;;;;;5.12;3.15;;;;;;;19.08;70.44;100328.92;1754136;80;21117;-65
2022/07/09 07:54:04;;;;;;;6.20;3.40;;;;;;;19.11;70.15;100336.08;1750422;80;21087;-66
2022/07/09 07:56:33;;;;;;;6.33;3.90;;;;;;;19.16;70.29;100338.70;1763004;80;21059;-64
2022/07/09 07:58:59;;;;;;;7.15;4.37;;;;;;;19.18;70.14;100326.01;1749236;80;21912;-67
2022/07/09 08:01:26;;;;;;;7.83;4.67;;;;;;;19.20;70.39;100326.16;1753007;80;21665;-68
2022/07/09 08:03:52;;;;;;;6.28;3.95;;;;;;;19.26;69.75;100329.94;1750576;80;21055;-68
2022/07/09 08:06:19;;;;;;;7.78;4.25;;;;;;;19.36;69.75;100334.50;1751676;80;21023;-63
2022/07/09 08:08:45;;;;;;;6.80;4.40;;;;;;;19.46;69.66;100337.73;1751117;80;21094;-65
2022/07/09 08:11:13;;;;;;;7.10;4.80;;;;;;;19.52;69.57;100336.20;1749033;80;21129;-65
2022/07/09 08:13:40;;;;;;;6.53;4.22;;;;;;;19.54;69.31;100334.17;1752953;80;21056;-63
2022/07/09 08:16:07;;;;;;;7.65;4.58;;;;;;;19.61;69.26;100338.27;1764399;80;21535;-63
2022/07/09 08:18:34;;;;;;;7.67;4.12;;;;;;;19.73;69.07;100347.47;1736847;80;21113;-63
2022/07/09 08:21:00;;;;;;;6.10;3.62;;;;;;;19.82;68.47;100342.89;1748999;80;21113;-63
2022/07/09 08:23:27;;;;;;;6.25;3.55;;;;;;;19.86;68.01;100342.34;1750213;80;21123;-64
2022/07/09 08:25:54;;;;;;;7.22;3.67;;;;;;;19.89;67.91;100342.50;1760851;80;21043;-63
2022/07/09 08:28:20;;;;;;;5.55;3.40;;;;;;;19.86;67.47;100344.20;1754915;80;21105;-63
2022/07/09 08:30:47;;;;;;;6.90;3.47;;;;;;;19.84;67.74;100351.05;1758049;80;21118;-64
2022/07/09 08:33:13;;;;;;;8.63;3.15;;;;;;;19.88;68.05;100348.84;1758829;80;21543;-63
2022/07/09 08:35:40;;;;;;;6.20;3.60;;;;;;;19.96;68.33;100354.61;1754734;80;21838;-62
2022/07/09 08:38:07;;;;;;;6.17;2.98;;;;;;;20.08;68.06;100354.45;1757367;80;21577;-63
2022/07/09 08:40:34;;;;;;;5.97;3.47;;;;;;;20.16;67.70;100353.02;1755623;80;21500;-63
2022/07/09 08:43:02;;;;;;;6.90;3.37;;;;;;;20.24;67.78;100350.76;1750570;80;21050;-63
2022/07/09 08:45:28;;;;;;;4.85;3.00;;;;;;;20.33;67.64;100347.47;1755159;80;21085;-63
2022/07/09 08:47:55;;;;;;;6.28;3.47;;;;;;;20.39;67.26;100352.04;1737548;80;21111;-62
2022/07/09 08:50:22;;;;;;;8.28;3.33;;;;;;;20.49;66.91;100351.74;1750329;80;21119;-62
2022/07/09 08:52:48;;;;;;;5.90;3.85;;;;;;;20.52;66.73;100348.18;1757565;80;21007;-63
2022/07/09 08:55:15;;;;;;;4.47;2.90;;;;;;;20.57;66.10;100351.11;1755362;80;21094;-63
2022/07/09 08:57:41;;;;;;;5.70;3.45;;;;;;;20.51;65.64;100343.02;1732904;80;21038;-62
2022/07/09 09:00:09;;;;;;;7.60;3.27;;;;;;;20.41;66.05;100342.02;1756444;80;21133;-65
2022/07/09 09:02:38;;;;;;;7.20;3.35;;;;;;;20.38;66.49;100335.70;1757166;80;21094;-62
2022/07/09 09:05:14;;;;;;;4.62;2.95;;;;;;;20.42;66.76;100330.29;1761648;80;21545;-64
2022/07/09 09:07:42;;;;;;;5.30;3.45;;;;;;;20.47;66.77;100320.38;1744047;80;21102;-64
2022/07/09 09:10:08;;;;;;;11.18;3.83;;;;;;;20.51;66.21;100315.80;1751290;80;21115;-63
2022/07/09 09:12:35;;;;;;;5.65;3.52;;;;;;;20.48;66.18;100311.35;1760227;80;21931;-62
2022/07/09 09:15:06;;;;;;;5.83;3.12;;;;;;;20.44;66.25;100308.20;1730192;81;21077;-62
2022/07/09 09:17:33;;;;;;;6.53;3.45;;;;;;;20.45;66.77;100300.52;1763091;80;21719;-63
2022/07/09 09:20:16;;;;;;;5.70;3.50;;;;;;;20.57;67.11;100296.83;1714979;82;21632;-63
2022/07/09 09:22:53;;;;;;;7.05;3.08;;;;;;;20.64;66.25;100287.05;1757620;80;21309;-63
2022/07/09 09:25:20;;;;;;;5.37;3.60;;;;;;;20.63;65.85;100284.57;1755396;80;21826;-64
2022/07/09 09:27:59;;;;;;;7.20;3.72;;;;;;;20.65;66.13;100283.89;1759420;80;20980;-63
2022/07/09 09:30:27;;;;;;;10.05;3.47;;;;;;;20.66;66.25;100281.52;1694925;83;21053;-63
2022/07/09 09:33:03;;;;;;;5.25;3.60;;;;;;;20.74;66.45;100276.05;1754351;80;21546;-67
2022/07/09 09:35:33;;;;;;;6.05;3.37;;;;;;;20.71;65.82;100279.09;1754950;80;21592;-64
2022/07/09 09:37:59;;;;;;;5.53;3.17;;;;;;;20.60;65.41;100277.22;1749958;80;21218;-64
2022/07/09 09:40:26;;;;;;;5.20;3.47;;;;;;;20.48;65.44;100273.94;1752362;80;21130;-63
2022/07/09 09:42:53;;;;;;;5.80;3.27;;;;;;;20.36;66.19;100273.61;1756879;80;21070;-64
2022/07/09 09:45:20;;;;;;;8.05;3.08;;;;;;;20.30;66.26;100266.34;1743822;80;21070;-63
2022/07/09 09:47:49;;;;;;;7.10;3.70;;;;;;;20.28;66.35;100268.38;1754191;80;21097;-63
2022/07/09 09:50:23;;;;;;;6.12;3.45;;;;;;;20.23;66.98;100264.42;1754584;80;21141;-63
2022/07/09 09:52:56;;;;;;;6.40;3.55;;;;;;;20.16;66.46;100256.84;1751259;80;21530;-63
2022/07/09 09:55:23;;;;;;;5.20;3.40;;;;;;;20.06;66.67;100259.00;1748752;80;21118;-63
2022/07/09 09:57:50;;;;;;;5.67;3.50;;;;;;;20.02;67.06;100257.70;1751011;80;21075;-63
2022/07/09 10:00:17;;;;;;;5.83;3.70;;;;;;;20.00;67.30;100259.73;1751818;80;21074;-64
2022/07/09 10:02:46;;;;;;;6.55;3.47;;;;;;;19.99;66.95;100256.25;1751230;80;21124;-63
2022/07/09 10:05:13;;;;;;;5.60;3.77;;;;;;;19.96;67.27;100266.48;1755031;80;21039;-63
2022/07/09 10:07:41;;;;;;;7.75;3.22;;;;;;;19.92;67.49;100266.03;1754522;80;21559;-63
2022/07/09 10:10:18;;;;;;;5.67;3.27;;;;;;;19.92;67.88;100266.03;1736467;80;21675;-63
2022/07/09 10:12:45;;;;;;;5.03;2.98;;;;;;;19.99;67.77;100264.26;1757237;80;21066;-61
2022/07/09 10:15:25;;;;;;;5.62;3.45;;;;;;;20.04;66.76;100271.72;1754194;80;21129;-62
2022/07/09 10:17:54;;;;;;;9.05;3.30;;;;;;;20.02;66.83;100280.40;1759098;80;21070;-62
2022/07/09 10:20:36;;;;;;;5.62;3.55;;;;;;;19.97;67.22;100291.66;1746505;80;21519;-62
2022/07/09 10:23:01;;;;;;;5.30;3.20;;;;;;;20.02;67.48;100293.27;1754509;80;21567;-62
2022/07/09 10:25:45;;;;;;;9.10;3.98;;;;;;;20.09;66.76;100290.68;1758530;80;21521;-61
2022/07/09 10:28:17;;;;;;;7.05;3.27;;;;;;;20.14;66.80;100294.09;1754401;80;21134;-62
2022/07/09 10:30:44;;;;;;;6.33;3.50;;;;;;;20.16;66.97;100292.09;1758695;80;21078;-62
2022/07/09 10:33:21;;;;;;;6.47;4.35;;;;;;;20.20;67.31;100300.85;1758947;80;21571;-61
2022/07/09 10:35:51;;;;;;;8.93;4.58;;;;;;;20.28;67.11;100295.10;1742707;80;21552;-64
2022/07/09 10:38:19;;;;;;;6.65;4.25;;;;;;;20.38;66.49;100295.63;1753071;80;21063;-62
2022/07/09 10:40:47;;;;;;;7.22;4.20;;;;;;;20.41;66.36;100305.42;1753328;80;21123;-62
2022/07/09 10:43:14;;;;;;;8.23;3.90;;;;;;;20.38;65.91;100303.64;1759082;80;21403;-62
2022/07/09 10:45:42;;;;;;;7.75;3.92;;;;;;;20.32;66.07;100300.38;1753933;80;21030;-62
2022/07/09 10:48:12;;;;;;;5.78;3.62;;;;;;;20.28;66.22;100303.11;1751438;80;21126;-63
2022/07/09 10:50:41;;;;;;;6.58;3.50;;;;;;;20.28;66.20;100300.44;1754026;80;21101;-62
2022/07/09 10:53:08;;;;;;;5.22;3.20;;;;;;;20.31;66.29;100296.88;1749582;80;21115;-62
2022/07/09 10:55:35;;;;;;;6.40;3.50;;;;;;;20.35;66.24;100300.81;1755122;80;21526;-62
2022/07/09 10:58:07;;;;;;;6.35;3.80;;;;;;;20.36;66.35;100307.02;1753527;80;21063;-62
2022/07/09 11:00:30;;;;;;;6.20;3.65;;;;;;;20.33;66.42;100303.38;1757919;80;21134;-62
2022/07/09 11:03:04;;;;;;;4.83;2.90;;;;;;;20.36;66.27;100307.83;1772803;80;21044;-62
2022/07/09 11:05:33;;;;;;;9.15;4.33;;;;;;;20.42;66.07;100303.56;1751257;80;21175;-62
2022/07/09 11:08:05;;;;;;;5.47;3.60;;;;;;;20.46;65.82;100302.19;1764660;80;21556;-62
2022/07/09 11:10:38;;;;;;;6.78;3.60;;;;;;;20.50;66.07;100304.78;1761924;80;21071;-62
2022/07/09 11:13:08;;;;;;;7.05;3.90;;;;;;;20.55;65.73;100304.22;1761074;80;21023;-62
2022/07/09 11:15:36;;;;;;;6.08;3.72;;;;;;;20.61;65.36;100303.47;1763528;80;21124;-61
2022/07/09 11:18:10;;;;;;;5.50;3.47;;;;;;;20.68;65.25;100305.72;1763557;80;21198;-62
2022/07/09 11:20:46;;;;;;;5.10;3.40;;;;;;;20.80;65.38;100298.53;1761484;80;21066;-62
2022/07/09 11:23:14;;;;;;;5.58;3.65;;;;;;;20.89;65.28;100306.20;1760554;80;21063;-61
2022/07/09 11:25:41;;;;;;;5.83;3.60;;;;;;;20.95;65.34;100308.64;1756288;80;21052;-62
2022/07/09 11:28:08;;;;;;;6.40;3.30;;;;;;;20.96;64.53;100305.78;1770003;80;20987;-62